createdAt,value
2022-09-13T00:01:17.212Z,98897.44
2022-09-13T00:03:44.827Z,98907.75
2022-09-13T00:06:19.267Z,98914.91
2022-09-13T00:08:49.659Z,98918.06
2022-09-13T00:11:24.208Z,98914.34
2022-09-13T00:13:53.392Z,98908.16
2022-09-13T00:16:24.657Z,98910.88
2022-09-13T00:18:54.520Z,98898.47
2022-09-13T00:21:24.802Z,98899.31
2022-09-13T00:23:54.273Z,98899.66
2022-09-13T00:26:27.399Z,98891.31
2022-09-13T00:28:57.612Z,98890.19
2022-09-13T00:31:27.697Z,98899.38
2022-09-13T00:33:56.069Z,98894.19
2022-09-13T00:36:23.336Z,98891.91
2022-09-13T00:38:51.956Z,98892.72
2022-09-13T00:41:22.138Z,98890.69
2022-09-13T00:43:57.979Z,98886.66
2022-09-13T00:46:28.205Z,98896.13
2022-09-13T00:49:11.816Z,98881.91
2022-09-13T00:51:42.447Z,98894.25
2022-09-13T00:54:10.568Z,98892.94
2022-09-13T00:56:41.692Z,98880.94
2022-09-13T00:59:26.836Z,98890.91
2022-09-13T01:01:56.862Z,98898.00
2022-09-13T01:04:32.776Z,98895.94
2022-09-13T01:07:04.604Z,98886.28
2022-09-13T01:09:36.835Z,98879.41
2022-09-13T01:12:18.764Z,98884.97
2022-09-13T01:14:47.849Z,98885.69
2022-09-13T01:17:15.023Z,98881.22
2022-09-13T01:19:42.248Z,98894.31
2022-09-13T01:22:37.227Z,98887.13
2022-09-13T01:25:34.364Z,98810.56
2022-09-13T01:28:11.406Z,98895.59
2022-09-13T01:30:47.693Z,98896.69
2022-09-13T01:33:50.078Z,98885.09
2022-09-13T01:36:58.551Z,98890.22
2022-09-13T01:39:41.454Z,98882.59
2022-09-13T01:42:43.171Z,98869.31
2022-09-13T01:45:23.268Z,98891.03
2022-09-13T01:47:54.235Z,98896.50
2022-09-13T01:50:44.664Z,98848.59
2022-09-13T01:53:31.405Z,98871.47
2022-09-13T01:56:09.895Z,98887.19
2022-09-13T01:58:44.055Z,98890.69
2022-09-13T02:01:32.359Z,98882.13
2022-09-13T02:04:03.006Z,98871.59
2022-09-13T02:06:38.091Z,98890.00
2022-09-13T02:09:12.363Z,98888.66
2022-09-13T02:11:43.211Z,98880.19
2022-09-13T02:14:22.168Z,98884.94
2022-09-13T02:17:06.222Z,98884.06
2022-09-13T02:20:07.079Z,98886.25
2022-09-13T02:22:39.892Z,98876.53
2022-09-13T02:25:12.671Z,98879.41
2022-09-13T02:27:45.329Z,98885.69
2022-09-13T02:30:14.503Z,98875.94
2022-09-13T02:32:52.994Z,98875.34
2022-09-13T02:35:36.790Z,98867.66
2022-09-13T02:38:16.957Z,98877.06
2022-09-13T02:40:53.794Z,98869.09
2022-09-13T02:43:32.123Z,98869.91
2022-09-13T02:46:12.937Z,98865.63
2022-09-13T02:49:02.616Z,98877.50
2022-09-13T02:51:42.293Z,98878.16
2022-09-13T02:54:37.362Z,98887.28
2022-09-13T02:57:18.457Z,98887.91
2022-09-13T02:59:48.185Z,98879.22
2022-09-13T03:02:19.867Z,98887.72
2022-09-13T03:04:47.699Z,98877.69
2022-09-13T03:07:19.025Z,98882.88
2022-09-13T03:09:56.373Z,98874.47
2022-09-13T03:12:48.533Z,98879.31
2022-09-13T03:15:30.838Z,98889.69
2022-09-13T03:18:22.317Z,98891.47
2022-09-13T03:21:07.704Z,98891.09
2022-09-13T03:24:02.103Z,98886.06
2022-09-13T03:26:46.189Z,98893.41
2022-09-13T03:29:32.041Z,98876.94
2022-09-13T03:32:22.775Z,98897.34
2022-09-13T03:35:06.097Z,98894.13
2022-09-13T03:37:48.566Z,98894.75
2022-09-13T03:40:44.856Z,98884.22
2022-09-13T03:43:16.598Z,98904.09
2022-09-13T03:45:49.752Z,98905.94
2022-09-13T03:48:18.552Z,98906.34
2022-09-13T03:50:47.651Z,98904.22
2022-09-13T03:53:21.006Z,98903.72
2022-09-13T03:55:48.065Z,98899.53
2022-09-13T03:58:22.011Z,98904.78
2022-09-13T04:00:52.363Z,98914.59
2022-09-13T04:03:19.877Z,98915.91
2022-09-13T04:05:47.116Z,98903.66
2022-09-13T04:08:14.301Z,98908.06
2022-09-13T04:10:41.987Z,98905.28
2022-09-13T04:13:09.291Z,98910.09
2022-09-13T04:15:36.442Z,98907.06
2022-09-13T04:18:03.688Z,98915.66
2022-09-13T04:20:32.714Z,98919.22
2022-09-13T04:23:01.169Z,98912.16
2022-09-13T04:25:30.211Z,98920.13
2022-09-13T04:28:00.040Z,98918.53
2022-09-13T04:30:28.597Z,98917.53
2022-09-13T04:33:07.881Z,98910.81
2022-09-13T04:35:39.410Z,98912.97
2022-09-13T04:38:07.568Z,98917.34
2022-09-13T04:40:35.894Z,98915.09
2022-09-13T04:43:04.047Z,98927.09
2022-09-13T04:45:31.511Z,98904.16
2022-09-13T04:47:59.382Z,98911.94
2022-09-13T04:50:26.641Z,98915.59
2022-09-13T04:52:57.174Z,98916.22
2022-09-13T04:55:26.331Z,98909.94
2022-09-13T04:57:54.898Z,98927.31
2022-09-13T05:00:23.081Z,98914.31
2022-09-13T05:02:55.635Z,98927.47
2022-09-13T05:05:23.747Z,98937.13
2022-09-13T05:07:51.959Z,98932.47
2022-09-13T05:10:24.323Z,98930.47
2022-09-13T05:12:53.884Z,98937.28
2022-09-13T05:15:21.321Z,98939.81
2022-09-13T05:17:48.408Z,98928.75
2022-09-13T05:20:16.259Z,98940.41
2022-09-13T05:22:43.541Z,98940.91
2022-09-13T05:25:10.743Z,98948.22
2022-09-13T05:27:38.115Z,98942.28
2022-09-13T05:30:06.104Z,98947.56
2022-09-13T05:32:33.230Z,98946.97
2022-09-13T05:35:00.453Z,98945.03
2022-09-13T05:37:27.705Z,98941.16
2022-09-13T05:40:10.625Z,98947.22
2022-09-13T05:42:39.676Z,98952.53
2022-09-13T05:45:07.519Z,98953.84
2022-09-13T05:47:34.941Z,98947.06
2022-09-13T05:50:10.427Z,98950.34
2022-09-13T05:52:39.731Z,98946.88
2022-09-13T05:55:07.421Z,98954.19
2022-09-13T05:57:34.600Z,98959.06
2022-09-13T06:00:02.081Z,98956.81
2022-09-13T06:02:40.629Z,98939.97
2022-09-13T06:05:10.749Z,98952.13
2022-09-13T06:07:41.956Z,98946.63
2022-09-13T06:10:10.495Z,98948.72
2022-09-13T06:12:38.354Z,98947.53
2022-09-13T06:15:06.117Z,98948.13
2022-09-13T06:17:33.292Z,98953.06
2022-09-13T06:20:00.508Z,98957.06
2022-09-13T06:22:33.448Z,98956.06
2022-09-13T06:25:00.711Z,98954.63
2022-09-13T06:27:30.422Z,98951.34
2022-09-13T06:29:57.548Z,98947.44
2022-09-13T06:32:25.579Z,98964.00
2022-09-13T06:34:53.085Z,98961.31
2022-09-13T06:37:20.312Z,98966.56
2022-09-13T06:39:47.532Z,98963.06
2022-09-13T06:42:15.459Z,98967.22
2022-09-13T06:44:46.163Z,98963.63
2022-09-13T06:47:13.702Z,98959.63
2022-09-13T06:49:40.881Z,98966.66
2022-09-13T06:52:08.285Z,98981.19
2022-09-13T06:54:35.506Z,98978.41
2022-09-13T06:57:03.639Z,98984.47
2022-09-13T06:59:31.378Z,99000.13
2022-09-13T07:01:58.749Z,98991.84
2022-09-13T07:04:26.231Z,98994.69
2022-09-13T07:06:54.777Z,99006.94
2022-09-13T07:09:22.460Z,99001.31
2022-09-13T07:11:52.008Z,99005.28
2022-09-13T07:14:22.443Z,98997.78
2022-09-13T07:16:51.204Z,99006.28
2022-09-13T07:19:22.899Z,99013.00
2022-09-13T07:21:50.665Z,99000.69
2022-09-13T07:24:18.689Z,99000.06
2022-09-13T07:26:46.978Z,99008.22
2022-09-13T07:29:22.837Z,99012.69
2022-09-13T07:31:52.210Z,99000.41
2022-09-13T07:34:22.090Z,99011.63
2022-09-13T07:36:50.365Z,99006.53
2022-09-13T07:39:22.302Z,99012.25
2022-09-13T07:41:50.868Z,99006.31
2022-09-13T07:44:18.687Z,99000.44
2022-09-13T07:46:46.650Z,99016.59
2022-09-13T07:49:17.895Z,99015.34
2022-09-13T07:51:45.727Z,98965.22
2022-09-13T07:54:18.147Z,98996.59
2022-09-13T07:56:45.757Z,99007.81
2022-09-13T07:59:15.556Z,99016.13
2022-09-13T08:01:45.771Z,98996.56
2022-09-13T08:04:17.908Z,98997.41
2022-09-13T08:06:46.910Z,98999.91
2022-09-13T08:09:15.423Z,99002.84
2022-09-13T08:11:46.021Z,98995.69
2022-09-13T08:14:15.743Z,99004.19
2022-09-13T08:16:43.298Z,99004.13
2022-09-13T08:19:13.719Z,99004.09
2022-09-13T08:21:42.903Z,99004.88
2022-09-13T08:24:15.998Z,98986.16
2022-09-13T08:26:43.863Z,98992.25
2022-09-13T08:29:12.372Z,98987.84
2022-09-13T08:31:39.550Z,98981.81
2022-09-13T08:34:11.995Z,98983.00
2022-09-13T08:36:41.231Z,98971.84
2022-09-13T08:39:09.723Z,98992.69
2022-09-13T08:41:40.212Z,98978.75
2022-09-13T08:44:29.691Z,98970.75
2022-09-13T08:47:09.883Z,98968.38
2022-09-13T08:49:47.945Z,98966.81
2022-09-13T08:52:15.194Z,98970.81
2022-09-13T08:54:43.234Z,98971.66
2022-09-13T08:57:19.214Z,98963.28
2022-09-13T08:59:48.797Z,98964.16
2022-09-13T09:02:47.034Z,98959.28
2022-09-13T09:05:30.809Z,98957.38
2022-09-13T09:08:12.928Z,98957.41
2022-09-13T09:10:47.118Z,98943.78
2022-09-13T09:13:26.089Z,98957.41
2022-09-13T09:15:58.292Z,98956.59
2022-09-13T09:18:33.582Z,98951.00
2022-09-13T09:21:04.221Z,98949.41
2022-09-13T09:23:41.976Z,98955.41
2022-09-13T09:26:18.808Z,98946.63
2022-09-13T09:28:59.333Z,98945.03
2022-09-13T09:31:59.244Z,98949.44
2022-09-13T09:34:48.426Z,98942.25
2022-09-13T09:37:27.284Z,98938.25
2022-09-13T09:40:01.647Z,98942.19
2022-09-13T09:42:40.175Z,98946.16
2022-09-13T09:45:29.711Z,98942.25
2022-09-13T09:48:02.445Z,98946.25
2022-09-13T09:50:35.115Z,98945.47
2022-09-13T09:53:15.034Z,98943.84
2022-09-13T09:55:48.717Z,98947.06
2022-09-13T09:58:19.195Z,98935.03
2022-09-13T10:00:57.682Z,98949.44
2022-09-13T10:03:27.780Z,98905.00
2022-09-13T10:06:11.690Z,98940.66
2022-09-13T10:08:41.955Z,98936.66
2022-09-13T10:11:10.019Z,98942.22
2022-09-13T10:13:38.415Z,98936.22
2022-09-13T10:16:21.797Z,98908.59
2022-09-13T10:18:48.998Z,98918.22
2022-09-13T10:21:19.273Z,98924.63
2022-09-13T10:23:50.898Z,98923.44
2022-09-13T10:26:20.591Z,98921.44
2022-09-13T10:28:58.759Z,98860.22
2022-09-13T10:31:39.247Z,98919.84
2022-09-13T10:34:28.382Z,98920.22
2022-09-13T10:37:13.868Z,98931.00
2022-09-13T10:39:50.394Z,98922.56
2022-09-13T10:42:23.710Z,98911.75
2022-09-13T10:44:58.108Z,98906.09
2022-09-13T10:47:27.691Z,98909.69
2022-09-13T10:49:57.773Z,98898.84
2022-09-13T10:52:40.870Z,98913.69
2022-09-13T10:55:19.970Z,98906.56
2022-09-13T10:57:49.646Z,98910.13
2022-09-13T11:00:20.323Z,98901.75
2022-09-13T11:03:00.478Z,98908.53
2022-09-13T11:06:20.919Z,98893.63
2022-09-13T11:09:09.287Z,98895.66
2022-09-13T11:11:46.883Z,98890.84
2022-09-13T11:14:34.253Z,98895.69
2022-09-13T11:17:20.119Z,98886.94
2022-09-13T11:20:02.469Z,98889.72
2022-09-13T11:22:41.831Z,98894.94
2022-09-13T11:25:46.615Z,98898.22
2022-09-13T11:28:29.113Z,98873.78
2022-09-13T11:30:56.245Z,98885.69
2022-09-13T11:33:44.717Z,98886.84
2022-09-13T11:36:59.130Z,98883.63
2022-09-13T11:39:53.598Z,98889.19
2022-09-13T11:42:31.220Z,98886.44
2022-09-13T11:45:37.920Z,98879.06
2022-09-13T11:48:23.126Z,98880.63
2022-09-13T11:50:56.993Z,98884.63
2022-09-13T11:53:36.504Z,98879.84
2022-09-13T11:56:11.684Z,98877.84
2022-09-13T11:58:58.220Z,98871.34
2022-09-13T12:01:34.399Z,98867.25
2022-09-13T12:04:14.013Z,98862.34
2022-09-13T12:06:50.631Z,98859.09
2022-09-13T12:09:21.072Z,98868.66
2022-09-13T12:11:58.329Z,98877.16
2022-09-13T12:14:38.705Z,98872.00
2022-09-13T12:17:22.664Z,98868.00
2022-09-13T12:19:55.181Z,98864.88
2022-09-13T12:22:30.860Z,98865.69
2022-09-13T12:25:03.893Z,98879.44
2022-09-13T12:27:56.945Z,98872.94
2022-09-13T12:30:29.861Z,98869.16
2022-09-13T12:32:59.220Z,98851.00
2022-09-13T12:35:35.578Z,98861.28
2022-09-13T12:38:32.629Z,98868.41
2022-09-13T12:41:21.475Z,98857.56
2022-09-13T12:44:15.475Z,98866.75
2022-09-13T12:47:11.838Z,98870.09
2022-09-13T12:49:52.783Z,98846.09
2022-09-13T12:52:44.939Z,98864.72
2022-09-13T12:55:47.012Z,98857.19
2022-09-13T12:58:37.608Z,98854.88
2022-09-13T13:01:08.019Z,98860.88
2022-09-13T13:03:45.290Z,98857.69
2022-09-13T13:06:27.561Z,98859.56
2022-09-13T13:08:57.681Z,98845.56
2022-09-13T13:11:28.331Z,98855.78
2022-09-13T13:14:09.345Z,98859.50
2022-09-13T13:16:48.349Z,98852.31
2022-09-13T13:19:33.334Z,98866.72
2022-09-13T13:22:38.319Z,98863.13
2022-09-13T13:25:39.185Z,98854.16
2022-09-13T13:28:43.447Z,98865.75
2022-09-13T13:31:10.850Z,98852.41
2022-09-13T13:33:51.001Z,98849.34
2022-09-13T13:36:28.955Z,98846.00
2022-09-13T13:38:57.124Z,98852.63
2022-09-13T13:41:33.679Z,98866.13
2022-09-13T13:44:02.462Z,98861.41
2022-09-13T13:46:38.650Z,98863.84
2022-09-13T13:49:30.975Z,98874.91
2022-09-13T13:52:18.979Z,98862.59
2022-09-13T13:54:47.530Z,98865.75
2022-09-13T13:57:26.068Z,98866.84
2022-09-13T14:00:12.184Z,98871.19
2022-09-13T14:03:10.324Z,98863.94
2022-09-13T14:05:49.603Z,98871.03
2022-09-13T14:09:06.419Z,98865.53
2022-09-13T14:11:51.835Z,98865.56
2022-09-13T14:14:27.965Z,98866.84
2022-09-13T14:17:17.155Z,98872.06
2022-09-13T14:19:59.123Z,98868.09
2022-09-13T14:22:28.597Z,98861.63
2022-09-13T14:25:18.916Z,98872.81
2022-09-13T14:27:51.662Z,98870.72
2022-09-13T14:30:36.574Z,98860.38
2022-09-13T14:33:06.137Z,98861.94
2022-09-13T14:35:33.372Z,98874.34
2022-09-13T14:38:23.404Z,98855.91
2022-09-13T14:40:58.235Z,98861.88
2022-09-13T14:43:27.945Z,98853.09
2022-09-13T14:46:07.823Z,98865.50
2022-09-13T14:48:46.581Z,98866.31
2022-09-13T14:51:42.256Z,98867.13
2022-09-13T14:54:28.934Z,98867.53
2022-09-13T14:57:00.535Z,98849.94
2022-09-13T14:59:35.490Z,98866.31
2022-09-13T15:02:25.219Z,98874.75
2022-09-13T15:05:00.805Z,98872.31
2022-09-13T15:07:36.194Z,98883.13
2022-09-13T15:10:32.279Z,98853.19
2022-09-13T15:13:05.352Z,98869.97
2022-09-13T15:15:35.431Z,98867.53
2022-09-13T15:18:19.561Z,98874.00
2022-09-13T15:21:09.412Z,98868.88
2022-09-13T15:23:40.346Z,98865.25
2022-09-13T15:26:20.933Z,98858.34
2022-09-13T15:29:04.614Z,98864.75
2022-09-13T15:31:34.958Z,98870.75
2022-09-13T15:34:40.792Z,98866.78
2022-09-13T15:37:12.298Z,98857.66
2022-09-13T15:40:02.219Z,98864.03
2022-09-13T15:42:30.617Z,98868.88
2022-09-13T15:44:58.325Z,98873.34
2022-09-13T15:47:25.569Z,98877.78
2022-09-13T15:49:53.223Z,98873.81
2022-09-13T15:52:23.657Z,98884.25
2022-09-13T15:54:52.240Z,98883.47
2022-09-13T15:57:27.988Z,98877.91
2022-09-13T16:00:01.449Z,98882.78
2022-09-13T16:02:36.852Z,98890.03
2022-09-13T16:05:04.629Z,98889.25
2022-09-13T16:07:31.951Z,98890.03
2022-09-13T16:09:59.752Z,98898.06
2022-09-13T16:12:27.262Z,98895.69
2022-09-13T16:14:55.000Z,98894.94
2022-09-13T16:17:27.126Z,98877.81
2022-09-13T16:19:55.516Z,98900.22
2022-09-13T16:22:23.291Z,98903.84
2022-09-13T16:24:50.791Z,98893.81
2022-09-13T16:27:19.798Z,98899.03
2022-09-13T16:29:48.077Z,98899.00
2022-09-13T16:32:15.839Z,98901.41
2022-09-13T16:34:43.044Z,98899.41
2022-09-13T16:37:15.339Z,98822.94
2022-09-13T16:39:43.345Z,98906.59
2022-09-13T16:42:11.107Z,98909.34
2022-09-13T16:44:38.228Z,98910.09
2022-09-13T16:47:05.672Z,98905.28
2022-09-13T16:49:33.344Z,98916.06
2022-09-13T16:52:01.451Z,98913.63
2022-09-13T16:54:37.521Z,98910.78
2022-09-13T16:57:06.614Z,98924.34
2022-09-13T16:59:34.698Z,98932.28
2022-09-13T17:02:03.949Z,98923.03
2022-09-13T17:04:33.257Z,98933.38
2022-09-13T17:07:02.645Z,98927.72
2022-09-13T17:09:30.946Z,98921.69
2022-09-13T17:11:58.388Z,98931.97
2022-09-13T17:14:28.030Z,98936.72
2022-09-13T17:16:57.250Z,98933.09
2022-09-13T17:19:31.415Z,98943.72
2022-09-13T17:21:58.894Z,98937.25
2022-09-13T17:24:28.206Z,98942.75
2022-09-13T17:26:57.252Z,98937.13
2022-09-13T17:29:31.310Z,98945.88
2022-09-13T17:32:08.149Z,98953.72
2022-09-13T17:34:35.729Z,98952.50
2022-09-13T17:37:03.894Z,98951.25
2022-09-13T17:39:31.502Z,98957.53
2022-09-13T17:41:59.090Z,98961.94
2022-09-13T17:44:26.405Z,98956.59
2022-09-13T17:46:54.449Z,98969.72
2022-09-13T17:49:21.843Z,98977.59
2022-09-13T17:51:49.234Z,98966.75
2022-09-13T17:54:16.732Z,98980.59
2022-09-13T17:56:45.064Z,98980.88
2022-09-13T17:59:20.208Z,98975.97
2022-09-13T18:01:51.225Z,98989.53
2022-09-13T18:04:21.698Z,98980.25
2022-09-13T18:06:51.985Z,98986.88
2022-09-13T18:09:19.942Z,98991.16
2022-09-13T18:11:47.198Z,98989.13
2022-09-13T18:14:16.493Z,98995.44
2022-09-13T18:16:44.904Z,98993.28
2022-09-13T18:19:12.879Z,98992.75
2022-09-13T18:21:41.113Z,98992.31
2022-09-13T18:24:08.615Z,98996.34
2022-09-13T18:26:36.963Z,99000.31
2022-09-13T18:29:09.140Z,99004.09
2022-09-13T18:31:37.174Z,98992.72
2022-09-13T18:34:11.262Z,99007.56
2022-09-13T18:36:38.703Z,98986.66
2022-09-13T18:39:07.968Z,98991.09
2022-09-13T18:41:38.037Z,99005.94
2022-09-13T18:44:05.661Z,99012.19
2022-09-13T18:46:34.873Z,99014.97
2022-09-13T18:49:03.456Z,99012.06
2022-09-13T18:51:36.132Z,99004.00
2022-09-13T18:54:04.911Z,98990.19
2022-09-13T18:56:32.922Z,99008.56
2022-09-13T18:59:02.338Z,99009.69
2022-09-13T19:01:35.493Z,99001.91
2022-09-13T19:04:14.554Z,99010.69
2022-09-13T19:06:48.390Z,99009.75
2022-09-13T19:09:16.844Z,99007.34
2022-09-13T19:11:48.659Z,99007.63
2022-09-13T19:14:29.544Z,99004.72
2022-09-13T19:17:04.747Z,99003.53
2022-09-13T19:19:32.019Z,99002.81
2022-09-13T19:21:59.394Z,99002.66
2022-09-13T19:24:28.559Z,99002.22
2022-09-13T19:26:56.010Z,99005.75
2022-09-13T19:29:23.468Z,98996.16
2022-09-13T19:31:52.896Z,99003.69
2022-09-13T19:34:22.411Z,99002.81
2022-09-13T19:36:53.866Z,99003.56
2022-09-13T19:39:21.752Z,99006.88
2022-09-13T19:41:51.076Z,98999.28
2022-09-13T19:44:18.279Z,98990.56
2022-09-13T19:46:46.369Z,99021.69
2022-09-13T19:49:16.180Z,99002.97
2022-09-13T19:51:47.540Z,99008.38
2022-09-13T19:54:20.975Z,99014.31
2022-09-13T19:56:48.670Z,99008.25
2022-09-13T19:59:19.861Z,99015.25
2022-09-13T20:01:47.952Z,98998.38
2022-09-13T20:04:21.065Z,99015.78
2022-09-13T20:06:50.799Z,99026.03
2022-09-13T20:09:19.612Z,99019.09
2022-09-13T20:11:48.761Z,99021.00
2022-09-13T20:14:18.710Z,99019.16
2022-09-13T20:16:46.719Z,99024.94
2022-09-13T20:22:08.679Z,99016.09
2022-09-13T20:24:36.070Z,99024.50
2022-09-13T20:27:04.856Z,99025.22
2022-09-13T20:29:32.903Z,99024.72
2022-09-13T20:32:00.325Z,99043.66
2022-09-13T20:34:28.150Z,99039.69
2022-09-13T20:36:55.326Z,99036.13
2022-09-13T20:39:22.483Z,99025.53
2022-09-13T20:41:50.210Z,99022.00
2022-09-13T20:44:17.598Z,99030.63
2022-09-13T20:46:44.874Z,99021.25
2022-09-13T20:49:12.106Z,99020.63
2022-09-13T20:51:39.582Z,99031.13
2022-09-13T20:54:06.885Z,99026.13
2022-09-13T20:56:35.653Z,99034.28
2022-09-13T20:59:03.744Z,99032.53
2022-09-13T21:01:32.426Z,99029.56
2022-09-13T21:04:00.671Z,99031.53
2022-09-13T21:06:32.089Z,99028.84
2022-09-13T21:09:02.859Z,99040.06
2022-09-13T21:11:34.826Z,99033.50
2022-09-13T21:14:08.432Z,99040.69
2022-09-13T21:16:39.615Z,99030.56
2022-09-13T21:19:08.058Z,99030.13
2022-09-13T21:21:40.781Z,99016.41
2022-09-13T21:24:11.643Z,99029.66
2022-09-13T21:26:42.381Z,99029.84
2022-09-13T21:29:11.511Z,99038.78
2022-09-13T21:31:39.656Z,99042.09
2022-09-13T21:34:12.648Z,99044.44
2022-09-13T21:36:40.048Z,99037.63
2022-09-13T21:39:07.758Z,99048.34
2022-09-13T21:41:35.381Z,99046.66
2022-09-13T21:44:02.869Z,99040.31
2022-09-13T21:46:32.165Z,99025.56
2022-09-13T21:49:03.150Z,99029.31
2022-09-13T21:51:36.410Z,99024.91
2022-09-13T21:54:06.760Z,99044.59
2022-09-13T21:56:38.495Z,99049.78
2022-09-13T21:59:08.856Z,99051.09
2022-09-13T22:01:39.178Z,99035.78
2022-09-13T22:04:09.496Z,99043.78
2022-09-13T22:06:40.822Z,99028.28
2022-09-13T22:09:16.820Z,99026.91
2022-09-13T22:11:47.747Z,99026.91
2022-09-13T22:14:22.822Z,99036.50
2022-09-13T22:16:56.244Z,99033.97
2022-09-13T22:19:29.801Z,99022.25
2022-09-13T22:22:03.451Z,99025.72
2022-09-13T22:24:42.324Z,99015.53
2022-09-13T22:27:12.480Z,99026.06
2022-09-13T22:29:41.399Z,99030.56
2022-09-13T22:32:10.253Z,99029.56
2022-09-13T22:34:38.926Z,99036.00
2022-09-13T22:37:07.654Z,99029.28
2022-09-13T22:39:34.908Z,99030.59
2022-09-13T22:42:02.248Z,99038.13
2022-09-13T22:44:29.689Z,99042.41
2022-09-13T22:47:00.356Z,99053.38
2022-09-13T22:49:27.732Z,99053.28
2022-09-13T22:51:55.097Z,99041.69
2022-09-13T22:54:22.269Z,99042.81
2022-09-13T22:56:49.450Z,99054.00
2022-09-13T22:59:20.018Z,99067.31
2022-09-13T23:01:47.547Z,99058.06
2022-09-13T23:04:15.111Z,99058.81
2022-09-13T23:06:45.543Z,99062.66
2022-09-13T23:09:18.352Z,99055.84
2022-09-13T23:11:47.762Z,99063.44
2022-09-13T23:14:17.507Z,99051.25
2022-09-13T23:16:52.523Z,99063.94
2022-09-13T23:19:22.083Z,99058.44
2022-09-13T23:21:49.474Z,99074.81
2022-09-13T23:24:18.450Z,99070.66
2022-09-13T23:26:46.684Z,99079.44
2022-09-13T23:29:16.060Z,99065.84
2022-09-13T23:31:43.698Z,99054.56
2022-09-13T23:34:12.551Z,99069.31
2022-09-13T23:36:41.678Z,99064.03
2022-09-13T23:39:13.301Z,99061.03
2022-09-13T23:41:40.474Z,99071.88
2022-09-13T23:44:07.993Z,99077.72
2022-09-13T23:46:35.624Z,99077.38
2022-09-13T23:49:02.908Z,99080.56
2022-09-13T23:51:30.983Z,99084.34
2022-09-13T23:53:58.673Z,99089.56
2022-09-13T23:56:26.950Z,99096.75
2022-09-13T23:59:00.524Z,99086.41
